sensor_id;sensor_type;location;lat;lon;timestamp;pressure;altitude;pressure_sealevel;temperature;humidity
36692;BME280;22678;52.052;4.242;2022-07-25T00:00:39;101051.72;;;25.64;49.16
36692;BME280;22678;52.052;4.242;2022-07-25T00:03:04;101052.78;;;25.61;49.48
36692;BME280;22678;52.052;4.242;2022-07-25T00:05:30;101056.78;;;25.68;49.39
36692;BME280;22678;52.052;4.242;2022-07-25T00:07:55;101054.28;;;25.65;49.63
36692;BME280;22678;52.052;4.242;2022-07-25T00:10:21;101049.88;;;25.64;49.76
36692;BME280;22678;52.052;4.242;2022-07-25T00:12:46;101018.94;;;25.44;49.73
36692;BME280;22678;52.052;4.242;2022-07-25T00:15:11;101042.94;;;25.60;50.00
36692;BME280;22678;52.052;4.242;2022-07-25T00:17:37;101018.63;;;25.49;49.93
36692;BME280;22678;52.052;4.242;2022-07-25T00:20:03;101032.41;;;25.57;49.96
36692;BME280;22678;52.052;4.242;2022-07-25T00:22:29;101032.63;;;25.54;49.96
36692;BME280;22678;52.052;4.242;2022-07-25T00:24:54;101040.69;;;25.54;50.49
36692;BME280;22678;52.052;4.242;2022-07-25T00:27:19;101023.53;;;25.42;50.37
36692;BME280;22678;52.052;4.242;2022-07-25T00:29:45;101031.50;;;25.44;50.53
36692;BME280;22678;52.052;4.242;2022-07-25T00:32:12;101011.34;;;25.36;50.71
36692;BME280;22678;52.052;4.242;2022-07-25T00:34:37;100991.16;;;25.29;50.61
36692;BME280;22678;52.052;4.242;2022-07-25T00:37:03;100998.09;;;25.33;50.96
36692;BME280;22678;52.052;4.242;2022-07-25T00:39:28;100994.06;;;25.26;50.81
36692;BME280;22678;52.052;4.242;2022-07-25T00:41:53;101004.72;;;25.28;50.98
36692;BME280;22678;52.052;4.242;2022-07-25T00:44:27;100989.91;;;25.22;51.05
36692;BME280;22678;52.052;4.242;2022-07-25T00:46:53;101001.94;;;25.29;50.63
36692;BME280;22678;52.052;4.242;2022-07-25T00:49:19;100988.69;;;25.26;50.80
36692;BME280;22678;52.052;4.242;2022-07-25T00:51:45;100984.09;;;25.28;50.69
36692;BME280;22678;52.052;4.242;2022-07-25T00:54:11;100967.78;;;25.17;50.66
36692;BME280;22678;52.052;4.242;2022-07-25T00:56:37;100970.50;;;25.17;50.88
36692;BME280;22678;52.052;4.242;2022-07-25T00:59:03;100974.69;;;25.21;50.65
36692;BME280;22678;52.052;4.242;2022-07-25T01:01:28;100977.81;;;25.15;51.29
36692;BME280;22678;52.052;4.242;2022-07-25T01:03:54;100965.16;;;25.02;51.44
36692;BME280;22678;52.052;4.242;2022-07-25T01:06:19;100975.63;;;25.07;51.51
36692;BME280;22678;52.052;4.242;2022-07-25T01:08:45;100977.16;;;25.11;51.59
36692;BME280;22678;52.052;4.242;2022-07-25T01:11:11;100969.50;;;25.05;52.10
36692;BME280;22678;52.052;4.242;2022-07-25T01:13:37;100955.59;;;24.98;51.90
36692;BME280;22678;52.052;4.242;2022-07-25T01:16:02;100961.72;;;25.00;51.91
36692;BME280;22678;52.052;4.242;2022-07-25T01:18:28;100948.13;;;24.89;51.92
36692;BME280;22678;52.052;4.242;2022-07-25T01:20:53;100931.19;;;24.74;52.01
36692;BME280;22678;52.052;4.242;2022-07-25T01:23:18;100963.31;;;24.90;52.16
36692;BME280;22678;52.052;4.242;2022-07-25T01:25:44;100940.00;;;24.76;51.93
36692;BME280;22678;52.052;4.242;2022-07-25T01:28:10;100934.56;;;24.78;52.47
36692;BME280;22678;52.052;4.242;2022-07-25T01:30:35;100943.16;;;24.83;52.38
36692;BME280;22678;52.052;4.242;2022-07-25T01:33:00;100948.75;;;24.80;52.32
36692;BME280;22678;52.052;4.242;2022-07-25T01:35:26;100935.72;;;24.74;52.25
36692;BME280;22678;52.052;4.242;2022-07-25T01:37:51;100937.44;;;24.75;52.50
36692;BME280;22678;52.052;4.242;2022-07-25T01:40:16;100948.28;;;24.73;52.70
36692;BME280;22678;52.052;4.242;2022-07-25T01:42:42;100937.09;;;24.66;52.92
36692;BME280;22678;52.052;4.242;2022-07-25T01:45:09;100936.31;;;24.64;53.12
36692;BME280;22678;52.052;4.242;2022-07-25T01:47:35;100920.56;;;24.58;52.97
36692;BME280;22678;52.052;4.242;2022-07-25T01:50:00;100929.22;;;24.63;52.99
36692;BME280;22678;52.052;4.242;2022-07-25T01:52:26;100922.50;;;24.56;53.16
36692;BME280;22678;52.052;4.242;2022-07-25T01:54:51;100929.34;;;24.62;53.23
36692;BME280;22678;52.052;4.242;2022-07-25T01:57:16;100900.72;;;24.46;53.41
36692;BME280;22678;52.052;4.242;2022-07-25T01:59:42;100918.84;;;24.57;53.68
36692;BME280;22678;52.052;4.242;2022-07-25T02:02:08;100903.50;;;24.45;53.91
36692;BME280;22678;52.052;4.242;2022-07-25T02:04:34;100915.91;;;24.47;53.89
36692;BME280;22678;52.052;4.242;2022-07-25T02:06:59;100919.63;;;24.45;53.91
36692;BME280;22678;52.052;4.242;2022-07-25T02:09:25;100914.06;;;24.48;53.96
36692;BME280;22678;52.052;4.242;2022-07-25T02:11:50;100906.72;;;24.37;53.88
36692;BME280;22678;52.052;4.242;2022-07-25T02:14:16;100911.03;;;24.40;54.00
36692;BME280;22678;52.052;4.242;2022-07-25T02:16:41;100918.13;;;24.41;54.20
36692;BME280;22678;52.052;4.242;2022-07-25T02:19:06;100922.00;;;24.37;54.08
36692;BME280;22678;52.052;4.242;2022-07-25T02:21:32;100911.41;;;24.34;54.31
36692;BME280;22678;52.052;4.242;2022-07-25T02:23:57;100899.53;;;24.23;54.02
36692;BME280;22678;52.052;4.242;2022-07-25T02:26:22;100911.81;;;24.27;54.11
36692;BME280;22678;52.052;4.242;2022-07-25T02:28:49;100904.34;;;24.18;54.18
36692;BME280;22678;52.052;4.242;2022-07-25T02:31:15;100906.09;;;24.19;54.39
36692;BME280;22678;52.052;4.242;2022-07-25T02:33:40;100878.56;;;24.01;54.59
36692;BME280;22678;52.052;4.242;2022-07-25T02:36:06;100912.81;;;24.12;54.94
36692;BME280;22678;52.052;4.242;2022-07-25T02:38:32;100879.84;;;23.95;55.03
36692;BME280;22678;52.052;4.242;2022-07-25T02:40:57;100864.31;;;23.86;55.13
36692;BME280;22678;52.052;4.242;2022-07-25T02:43:22;100906.31;;;24.02;54.99
36692;BME280;22678;52.052;4.242;2022-07-25T02:45:48;100921.63;;;24.00;55.60
36692;BME280;22678;52.052;4.242;2022-07-25T02:48:13;100894.00;;;23.83;55.44
36692;BME280;22678;52.052;4.242;2022-07-25T02:50:39;100888.47;;;23.86;55.58
36692;BME280;22678;52.052;4.242;2022-07-25T02:53:04;100870.63;;;23.71;55.53
36692;BME280;22678;52.052;4.242;2022-07-25T02:55:30;100888.53;;;23.85;55.42
36692;BME280;22678;52.052;4.242;2022-07-25T02:57:56;100891.16;;;23.86;55.28
36692;BME280;22678;52.052;4.242;2022-07-25T03:00:22;100881.72;;;23.79;55.06
36692;BME280;22678;52.052;4.242;2022-07-25T03:02:48;100893.25;;;23.81;55.05
36692;BME280;22678;52.052;4.242;2022-07-25T03:05:14;100886.34;;;23.77;54.78
36692;BME280;22678;52.052;4.242;2022-07-25T03:07:40;100885.28;;;23.79;54.22
36692;BME280;22678;52.052;4.242;2022-07-25T03:10:07;100888.94;;;23.78;54.12
36692;BME280;22678;52.052;4.242;2022-07-25T03:12:33;100883.94;;;23.72;53.90
36692;BME280;22678;52.052;4.242;2022-07-25T03:14:59;100887.28;;;23.76;53.65
36692;BME280;22678;52.052;4.242;2022-07-25T03:17:24;100895.25;;;23.77;53.49
36692;BME280;22678;52.052;4.242;2022-07-25T03:19:50;100869.28;;;23.64;53.32
36692;BME280;22678;52.052;4.242;2022-07-25T03:22:15;100864.31;;;23.57;53.55
36692;BME280;22678;52.052;4.242;2022-07-25T03:24:41;100868.34;;;23.65;53.70
36692;BME280;22678;52.052;4.242;2022-07-25T03:27:06;100871.88;;;23.65;53.75
36692;BME280;22678;52.052;4.242;2022-07-25T03:29:31;100865.84;;;23.61;53.66
36692;BME280;22678;52.052;4.242;2022-07-25T03:31:57;100879.44;;;23.73;54.11
36692;BME280;22678;52.052;4.242;2022-07-25T03:34:23;100881.38;;;23.71;53.91
36692;BME280;22678;52.052;4.242;2022-07-25T03:36:48;100876.59;;;23.61;53.84
36692;BME280;22678;52.052;4.242;2022-07-25T03:39:14;100875.03;;;23.57;54.07
36692;BME280;22678;52.052;4.242;2022-07-25T03:41:39;100896.31;;;23.60;53.70
36692;BME280;22678;52.052;4.242;2022-07-25T03:44:04;100895.53;;;23.58;54.00
36692;BME280;22678;52.052;4.242;2022-07-25T03:46:30;100900.16;;;23.56;54.12
36692;BME280;22678;52.052;4.242;2022-07-25T03:48:55;100859.50;;;23.34;54.39
36692;BME280;22678;52.052;4.242;2022-07-25T03:51:20;100894.47;;;23.47;54.58
36692;BME280;22678;52.052;4.242;2022-07-25T03:53:46;100884.03;;;23.42;55.50
36692;BME280;22678;52.052;4.242;2022-07-25T03:56:27;100876.56;;;23.33;56.47
36692;BME280;22678;52.052;4.242;2022-07-25T03:58:53;100866.00;;;23.30;56.97
36692;BME280;22678;52.052;4.242;2022-07-25T04:01:18;100870.34;;;23.32;57.28
36692;BME280;22678;52.052;4.242;2022-07-25T04:03:43;100872.94;;;23.34;57.82
36692;BME280;22678;52.052;4.242;2022-07-25T04:06:09;100856.00;;;23.17;57.82
36692;BME280;22678;52.052;4.242;2022-07-25T04:08:34;100863.13;;;23.18;58.28
36692;BME280;22678;52.052;4.242;2022-07-25T04:10:59;100866.59;;;23.20;58.02
36692;BME280;22678;52.052;4.242;2022-07-25T04:13:24;100870.03;;;23.22;57.93
36692;BME280;22678;52.052;4.242;2022-07-25T04:15:50;100860.44;;;23.18;58.06
36692;BME280;22678;52.052;4.242;2022-07-25T04:18:15;100875.81;;;23.31;58.29
36692;BME280;22678;52.052;4.242;2022-07-25T04:20:40;100849.31;;;23.10;58.19
36692;BME280;22678;52.052;4.242;2022-07-25T04:23:05;100856.91;;;23.18;58.14
36692;BME280;22678;52.052;4.242;2022-07-25T04:25:31;100876.94;;;23.26;58.55
36692;BME280;22678;52.052;4.242;2022-07-25T04:27:56;100875.09;;;23.27;58.40
36692;BME280;22678;52.052;4.242;2022-07-25T04:30:21;100847.22;;;23.15;58.31
36692;BME280;22678;52.052;4.242;2022-07-25T04:32:46;100831.97;;;23.16;58.33
36692;BME280;22678;52.052;4.242;2022-07-25T04:35:12;100862.72;;;23.24;56.68
36692;BME280;22678;52.052;4.242;2022-07-25T04:37:37;100864.47;;;23.25;56.05
36692;BME280;22678;52.052;4.242;2022-07-25T04:40:04;100873.38;;;23.26;55.94
36692;BME280;22678;52.052;4.242;2022-07-25T04:42:29;100860.63;;;23.15;55.69
36692;BME280;22678;52.052;4.242;2022-07-25T04:44:54;100849.44;;;23.07;55.20
36692;BME280;22678;52.052;4.242;2022-07-25T04:47:20;100863.50;;;23.12;55.73
36692;BME280;22678;52.052;4.242;2022-07-25T04:49:45;100861.75;;;23.11;55.76
36692;BME280;22678;52.052;4.242;2022-07-25T04:52:10;100854.69;;;23.10;56.43
36692;BME280;22678;52.052;4.242;2022-07-25T04:54:36;100849.63;;;23.04;56.46
36692;BME280;22678;52.052;4.242;2022-07-25T04:57:01;100846.56;;;22.96;57.03
36692;BME280;22678;52.052;4.242;2022-07-25T04:59:28;100859.00;;;22.97;57.11
36692;BME280;22678;52.052;4.242;2022-07-25T05:01:53;100851.44;;;22.89;57.64
36692;BME280;22678;52.052;4.242;2022-07-25T05:04:19;100863.69;;;22.93;58.16
36692;BME280;22678;52.052;4.242;2022-07-25T05:06:44;100857.69;;;22.89;58.18
36692;BME280;22678;52.052;4.242;2022-07-25T05:09:09;100870.63;;;22.97;58.96
36692;BME280;22678;52.052;4.242;2022-07-25T05:11:35;100857.69;;;22.89;59.21
36692;BME280;22678;52.052;4.242;2022-07-25T05:14:00;100880.66;;;22.93;59.45
36692;BME280;22678;52.052;4.242;2022-07-25T05:16:25;100886.63;;;22.99;60.06
36692;BME280;22678;52.052;4.242;2022-07-25T05:18:50;100878.16;;;22.90;60.36
36692;BME280;22678;52.052;4.242;2022-07-25T05:21:16;100888.88;;;22.90;60.85
36692;BME280;22678;52.052;4.242;2022-07-25T05:23:41;100883.78;;;22.86;61.36
36692;BME280;22678;52.052;4.242;2022-07-25T05:26:06;100892.34;;;22.92;61.85
36692;BME280;22678;52.052;4.242;2022-07-25T05:28:32;100883.69;;;22.87;61.54
36692;BME280;22678;52.052;4.242;2022-07-25T05:30:58;100881.81;;;22.89;62.41
36692;BME280;22678;52.052;4.242;2022-07-25T05:33:23;100886.91;;;22.94;62.63
36692;BME280;22678;52.052;4.242;2022-07-25T05:35:48;100892.34;;;22.92;62.41
36692;BME280;22678;52.052;4.242;2022-07-25T05:38:14;100872.13;;;22.87;62.98
36692;BME280;22678;52.052;4.242;2022-07-25T05:40:39;100867.22;;;22.79;63.12
36692;BME280;22678;52.052;4.242;2022-07-25T05:43:04;100889.25;;;22.84;63.35
36692;BME280;22678;52.052;4.242;2022-07-25T05:45:30;100886.13;;;22.76;63.80
36692;BME280;22678;52.052;4.242;2022-07-25T05:47:55;100869.28;;;22.74;63.90
36692;BME280;22678;52.052;4.242;2022-07-25T05:50:20;100880.00;;;22.74;64.06
36692;BME280;22678;52.052;4.242;2022-07-25T05:52:46;100869.47;;;22.71;64.26
36692;BME280;22678;52.052;4.242;2022-07-25T05:55:11;100906.28;;;22.83;64.69
36692;BME280;22678;52.052;4.242;2022-07-25T05:57:37;100883.81;;;22.70;64.75
36692;BME280;22678;52.052;4.242;2022-07-25T06:00:04;100871.72;;;22.63;64.78
36692;BME280;22678;52.052;4.242;2022-07-25T06:02:30;100864.84;;;22.59;65.15
36692;BME280;22678;52.052;4.242;2022-07-25T06:04:55;100871.72;;;22.63;65.21
36692;BME280;22678;52.052;4.242;2022-07-25T06:07:20;100874.59;;;22.60;65.93
36692;BME280;22678;52.052;4.242;2022-07-25T06:09:46;100843.63;;;22.39;65.80
36692;BME280;22678;52.052;4.242;2022-07-25T06:12:11;100867.47;;;22.44;66.64
36692;BME280;22678;52.052;4.242;2022-07-25T06:14:38;100876.50;;;22.57;67.25
36692;BME280;22678;52.052;4.242;2022-07-25T06:17:03;100865.44;;;22.48;67.97
36692;BME280;22678;52.052;4.242;2022-07-25T06:19:28;100881.88;;;22.57;67.97
36692;BME280;22678;52.052;4.242;2022-07-25T06:21:54;100883.44;;;22.62;68.77
36692;BME280;22678;52.052;4.242;2022-07-25T06:24:19;100885.03;;;22.64;68.63
36692;BME280;22678;52.052;4.242;2022-07-25T06:26:44;100874.88;;;22.55;69.15
36692;BME280;22678;52.052;4.242;2022-07-25T06:29:10;100854.47;;;22.52;69.48
36692;BME280;22678;52.052;4.242;2022-07-25T06:31:35;100885.75;;;22.68;69.19
36692;BME280;22678;52.052;4.242;2022-07-25T06:34:00;100870.34;;;22.55;69.38
36692;BME280;22678;52.052;4.242;2022-07-25T06:36:26;100856.38;;;22.50;69.58
36692;BME280;22678;52.052;4.242;2022-07-25T06:38:51;100876.41;;;22.59;69.40
36692;BME280;22678;52.052;4.242;2022-07-25T06:41:16;100863.56;;;22.50;69.49
36692;BME280;22678;52.052;4.242;2022-07-25T06:43:42;100884.19;;;22.64;69.43
36692;BME280;22678;52.052;4.242;2022-07-25T06:46:07;100882.63;;;22.60;69.18
36692;BME280;22678;52.052;4.242;2022-07-25T06:48:32;100873.03;;;22.55;69.45
36692;BME280;22678;52.052;4.242;2022-07-25T06:50:58;100892.13;;;22.65;69.19
36692;BME280;22678;52.052;4.242;2022-07-25T06:53:23;100899.91;;;22.70;68.84
36692;BME280;22678;52.052;4.242;2022-07-25T06:55:48;100876.50;;;22.57;69.08
36692;BME280;22678;52.052;4.242;2022-07-25T06:58:13;100890.84;;;22.56;68.83
36692;BME280;22678;52.052;4.242;2022-07-25T07:00:39;100902.19;;;22.62;68.67
36692;BME280;22678;52.052;4.242;2022-07-25T07:03:04;100900.09;;;22.67;69.03
36692;BME280;22678;52.052;4.242;2022-07-25T07:05:32;100890.00;;;22.86;68.81
36692;BME280;22678;52.052;4.242;2022-07-25T07:07:58;100899.66;;;23.05;68.00
36692;BME280;22678;52.052;4.242;2022-07-25T07:10:24;100901.03;;;23.12;67.23
36692;BME280;22678;52.052;4.242;2022-07-25T07:13:01;100913.03;;;23.21;67.33
36692;BME280;22678;52.052;4.242;2022-07-25T07:15:27;100898.28;;;23.14;67.20
36692;BME280;22678;52.052;4.242;2022-07-25T07:17:52;100884.41;;;23.05;67.21
36692;BME280;22678;52.052;4.242;2022-07-25T07:20:18;100884.84;;;23.14;65.95
36692;BME280;22678;52.052;4.242;2022-07-25T07:22:46;100892.44;;;23.21;66.18
36692;BME280;22678;52.052;4.242;2022-07-25T07:25:13;100893.06;;;23.41;65.89
36692;BME280;22678;52.052;4.242;2022-07-25T07:27:39;100899.56;;;23.80;65.43
36692;BME280;22678;52.052;4.242;2022-07-25T07:30:06;100870.81;;;23.96;64.43
36692;BME280;22678;52.052;4.242;2022-07-25T07:32:31;100897.44;;;24.28;62.76
36692;BME280;22678;52.052;4.242;2022-07-25T07:34:56;100902.75;;;24.43;61.76
36692;BME280;22678;52.052;4.242;2022-07-25T07:37:22;100880.47;;;24.41;62.15
36692;BME280;22678;52.052;4.242;2022-07-25T07:39:47;100880.63;;;24.66;61.66
36692;BME280;22678;52.052;4.242;2022-07-25T07:42:13;100888.97;;;24.89;60.56
36692;BME280;22678;52.052;4.242;2022-07-25T07:44:38;100875.94;;;24.83;60.20
36692;BME280;22678;52.052;4.242;2022-07-25T07:47:03;100890.47;;;24.93;60.17
36692;BME280;22678;52.052;4.242;2022-07-25T07:49:29;100862.72;;;24.93;59.34
36692;BME280;22678;52.052;4.242;2022-07-25T07:51:54;100869.69;;;24.95;59.35
36692;BME280;22678;52.052;4.242;2022-07-25T07:54:20;100873.25;;;24.83;59.48
36692;BME280;22678;52.052;4.242;2022-07-25T07:57:20;100892.72;;;24.87;59.41
36692;BME280;22678;52.052;4.242;2022-07-25T07:59:46;100855.47;;;24.68;59.77
36692;BME280;22678;52.052;4.242;2022-07-25T08:02:11;100887.44;;;24.72;59.31
36692;BME280;22678;52.052;4.242;2022-07-25T08:04:37;100865.69;;;24.48;59.63
36692;BME280;22678;52.052;4.242;2022-07-25T08:07:02;100891.19;;;24.55;59.59
36692;BME280;22678;52.052;4.242;2022-07-25T08:09:27;100906.47;;;24.82;59.64
36692;BME280;22678;52.052;4.242;2022-07-25T08:11:53;100882.22;;;25.09;58.64
36692;BME280;22678;52.052;4.242;2022-07-25T08:14:18;100894.72;;;25.23;57.89
36692;BME280;22678;52.052;4.242;2022-07-25T08:16:44;100913.59;;;25.36;57.32
36692;BME280;22678;52.052;4.242;2022-07-25T08:19:09;100894.19;;;25.18;57.42
36692;BME280;22678;52.052;4.242;2022-07-25T08:21:35;100888.53;;;24.95;57.51
36692;BME280;22678;52.052;4.242;2022-07-25T08:24:00;100909.94;;;24.84;58.41
36692;BME280;22678;52.052;4.242;2022-07-25T08:26:25;100913.53;;;24.70;59.41
36692;BME280;22678;52.052;4.242;2022-07-25T08:28:52;100898.03;;;24.46;59.98
36692;BME280;22678;52.052;4.242;2022-07-25T08:31:17;100890.00;;;24.32;59.92
36692;BME280;22678;52.052;4.242;2022-07-25T08:33:43;100912.84;;;24.39;59.74
36692;BME280;22678;52.052;4.242;2022-07-25T08:36:08;100913.63;;;24.41;60.17
36692;BME280;22678;52.052;4.242;2022-07-25T08:38:35;100916.22;;;24.43;60.37
36692;BME280;22678;52.052;4.242;2022-07-25T08:41:01;100905.66;;;24.40;60.27
36692;BME280;22678;52.052;4.242;2022-07-25T08:43:28;100887.53;;;24.29;60.39
36692;BME280;22678;52.052;4.242;2022-07-25T08:45:55;100904.44;;;24.31;60.20
36692;BME280;22678;52.052;4.242;2022-07-25T08:48:24;100919.19;;;24.38;60.22
36692;BME280;22678;52.052;4.242;2022-07-25T08:50:50;100900.97;;;24.29;60.02
36692;BME280;22678;52.052;4.242;2022-07-25T08:53:18;100923.06;;;24.61;60.39
36692;BME280;22678;52.052;4.242;2022-07-25T08:55:44;100917.84;;;24.73;59.69
36692;BME280;22678;52.052;4.242;2022-07-25T08:58:12;100923.44;;;24.70;58.81
36692;BME280;22678;52.052;4.242;2022-07-25T09:00:38;100907.44;;;24.54;58.34
36692;BME280;22678;52.052;4.242;2022-07-25T09:03:04;100930.00;;;24.51;58.54
36692;BME280;22678;52.052;4.242;2022-07-25T09:05:33;100934.91;;;24.44;58.73
36692;BME280;22678;52.052;4.242;2022-07-25T09:08:07;100909.53;;;24.21;58.45
36692;BME280;22678;52.052;4.242;2022-07-25T09:10:33;100916.25;;;24.14;58.73
36692;BME280;22678;52.052;4.242;2022-07-25T09:13:07;100932.38;;;24.14;58.59
36692;BME280;22678;52.052;4.242;2022-07-25T09:15:59;100932.47;;;23.98;58.85
36692;BME280;22678;52.052;4.242;2022-07-25T09:18:25;100952.06;;;24.00;59.30
36692;BME280;22678;52.052;4.242;2022-07-25T09:20:59;100961.19;;;24.12;59.61
36692;BME280;22678;52.052;4.242;2022-07-25T09:23:28;100939.59;;;24.55;59.19
36692;BME280;22678;52.052;4.242;2022-07-25T09:26:05;100944.63;;;25.01;57.46
36692;BME280;22678;52.052;4.242;2022-07-25T09:28:42;100938.19;;;25.17;55.21
36692;BME280;22678;52.052;4.242;2022-07-25T09:31:08;100957.59;;;25.22;54.26
36692;BME280;22678;52.052;4.242;2022-07-25T09:33:44;100944.44;;;25.17;54.01
36692;BME280;22678;52.052;4.242;2022-07-25T09:36:10;100954.09;;;25.34;54.55
36692;BME280;22678;52.052;4.242;2022-07-25T09:38:36;100926.75;;;25.41;54.98
36692;BME280;22678;52.052;4.242;2022-07-25T09:41:02;100937.06;;;25.98;53.85
36692;BME280;22678;52.052;4.242;2022-07-25T09:43:38;100937.13;;;26.35;52.92
36692;BME280;22678;52.052;4.242;2022-07-25T09:46:05;100956.06;;;26.47;51.41
36692;BME280;22678;52.052;4.242;2022-07-25T09:48:31;100966.84;;;26.47;50.90
36692;BME280;22678;52.052;4.242;2022-07-25T09:50:57;100965.34;;;26.43;51.38
36692;BME280;22678;52.052;4.242;2022-07-25T09:53:23;100969.47;;;26.35;51.71
36692;BME280;22678;52.052;4.242;2022-07-25T09:55:48;100960.88;;;26.17;51.31
36692;BME280;22678;52.052;4.242;2022-07-25T09:58:13;100982.25;;;26.08;51.22
36692;BME280;22678;52.052;4.242;2022-07-25T10:00:40;100971.47;;;26.08;50.85
36692;BME280;22678;52.052;4.242;2022-07-25T10:08:46;100988.91;;;25.63;51.44
36692;BME280;22678;52.052;4.242;2022-07-25T10:11:24;100992.66;;;25.48;52.12
36692;BME280;22678;52.052;4.242;2022-07-25T10:13:51;100985.22;;;25.39;52.70
36692;BME280;22678;52.052;4.242;2022-07-25T10:16:21;100979.47;;;25.30;52.48
36692;BME280;22678;52.052;4.242;2022-07-25T10:18:56;100995.28;;;25.22;52.37
36692;BME280;22678;52.052;4.242;2022-07-25T10:21:23;100991.75;;;25.07;53.15
36692;BME280;22678;52.052;4.242;2022-07-25T10:24:03;100998.25;;;25.17;53.01
36692;BME280;22678;52.052;4.242;2022-07-25T10:26:30;101000.66;;;25.22;52.79
36692;BME280;22678;52.052;4.242;2022-07-25T10:28:56;100991.06;;;25.18;52.99
36692;BME280;22678;52.052;4.242;2022-07-25T10:31:25;100993.22;;;25.26;52.55
36692;BME280;22678;52.052;4.242;2022-07-25T10:33:55;101000.59;;;25.36;52.57
36692;BME280;22678;52.052;4.242;2022-07-25T10:36:22;100993.81;;;25.44;52.71
36692;BME280;22678;52.052;4.242;2022-07-25T10:38:50;101001.28;;;25.53;52.04
36692;BME280;22678;52.052;4.242;2022-07-25T10:41:16;101010.84;;;25.57;51.98
36692;BME280;22678;52.052;4.242;2022-07-25T10:43:44;101010.22;;;25.53;52.41
36692;BME280;22678;52.052;4.242;2022-07-25T10:46:17;101014.94;;;25.50;52.23
36692;BME280;22678;52.052;4.242;2022-07-25T10:48:43;100993.28;;;25.39;52.41
36692;BME280;22678;52.052;4.242;2022-07-25T10:51:11;101021.19;;;25.50;52.71
36692;BME280;22678;52.052;4.242;2022-07-25T10:53:45;101015.38;;;25.44;52.43
36692;BME280;22678;52.052;4.242;2022-07-25T10:56:15;101025.91;;;25.34;52.84
36692;BME280;22678;52.052;4.242;2022-07-25T10:58:55;101014.66;;;25.27;53.44
36692;BME280;22678;52.052;4.242;2022-07-25T11:01:26;101032.34;;;25.31;52.99
36692;BME280;22678;52.052;4.242;2022-07-25T11:03:54;101020.78;;;25.29;53.19
36692;BME280;22678;52.052;4.242;2022-07-25T11:06:34;101020.66;;;25.18;53.06
36692;BME280;22678;52.052;4.242;2022-07-25T11:09:01;101027.16;;;25.01;53.24
36692;BME280;22678;52.052;4.242;2022-07-25T11:11:36;101021.63;;;24.90;52.56
36692;BME280;22678;52.052;4.242;2022-07-25T11:14:03;101013.91;;;24.71;52.57
36692;BME280;22678;52.052;4.242;2022-07-25T11:16:29;101018.31;;;24.72;52.91
36692;BME280;22678;52.052;4.242;2022-07-25T11:18:54;101011.78;;;24.76;52.85
36692;BME280;22678;52.052;4.242;2022-07-25T11:21:20;101025.50;;;24.86;50.61
36692;BME280;22678;52.052;4.242;2022-07-25T11:23:50;101034.00;;;24.92;50.69
36692;BME280;22678;52.052;4.242;2022-07-25T11:26:16;101019.38;;;24.96;50.06
36692;BME280;22678;52.052;4.242;2022-07-25T11:28:48;101034.13;;;25.18;48.33
36692;BME280;22678;52.052;4.242;2022-07-25T11:31:15;101023.19;;;25.07;47.90
36692;BME280;22678;52.052;4.242;2022-07-25T11:33:44;101018.94;;;24.90;47.81
36692;BME280;22678;52.052;4.242;2022-07-25T11:36:10;101012.72;;;24.75;48.41
36692;BME280;22678;52.052;4.242;2022-07-25T11:38:37;101016.81;;;24.68;49.21
36692;BME280;22678;52.052;4.242;2022-07-25T11:41:03;101034.25;;;24.75;49.57
36692;BME280;22678;52.052;4.242;2022-07-25T11:43:29;101027.72;;;24.64;49.27
36692;BME280;22678;52.052;4.242;2022-07-25T11:45:59;101047.13;;;24.70;49.47
36692;BME280;22678;52.052;4.242;2022-07-25T11:48:39;101031.00;;;24.70;49.27
36692;BME280;22678;52.052;4.242;2022-07-25T11:51:16;101041.16;;;24.79;49.47
36692;BME280;22678;52.052;4.242;2022-07-25T11:53:47;101036.97;;;25.02;50.02
36692;BME280;22678;52.052;4.242;2022-07-25T11:56:17;101034.63;;;25.38;49.54
36692;BME280;22678;52.052;4.242;2022-07-25T11:58:58;101019.28;;;25.65;48.62
36692;BME280;22678;52.052;4.242;2022-07-25T12:01:24;101038.50;;;25.99;47.35
36692;BME280;22678;52.052;4.242;2022-07-25T12:03:50;101024.06;;;26.00;46.23
36692;BME280;22678;52.052;4.242;2022-07-25T12:06:16;101041.72;;;26.17;46.11
36692;BME280;22678;52.052;4.242;2022-07-25T12:08:41;101039.59;;;26.22;46.52
36692;BME280;22678;52.052;4.242;2022-07-25T12:11:20;101036.56;;;26.27;47.28
36692;BME280;22678;52.052;4.242;2022-07-25T12:13:47;101045.59;;;26.26;46.86
36692;BME280;22678;52.052;4.242;2022-07-25T12:16:13;101029.66;;;25.97;46.79
36692;BME280;22678;52.052;4.242;2022-07-25T12:18:38;101034.78;;;25.75;45.72
36692;BME280;22678;52.052;4.242;2022-07-25T12:21:04;101052.81;;;25.74;46.29
36692;BME280;22678;52.052;4.242;2022-07-25T12:23:29;101032.53;;;25.68;46.26
36692;BME280;22678;52.052;4.242;2022-07-25T12:25:55;101029.75;;;25.83;46.73
36692;BME280;22678;52.052;4.242;2022-07-25T12:28:20;101042.81;;;26.02;46.04
36692;BME280;22678;52.052;4.242;2022-07-25T12:30:47;101045.41;;;26.03;46.36
36692;BME280;22678;52.052;4.242;2022-07-25T12:33:13;101032.91;;;26.02;46.05
36692;BME280;22678;52.052;4.242;2022-07-25T12:35:43;101040.44;;;25.97;46.03
36692;BME280;22678;52.052;4.242;2022-07-25T12:38:09;101053.34;;;25.92;45.95
36692;BME280;22678;52.052;4.242;2022-07-25T12:40:35;101054.22;;;25.80;45.05
36692;BME280;22678;52.052;4.242;2022-07-25T12:43:00;101068.50;;;25.67;45.17
36692;BME280;22678;52.052;4.242;2022-07-25T12:45:26;101054.38;;;25.51;45.76
36692;BME280;22678;52.052;4.242;2022-07-25T12:47:52;101078.69;;;25.49;46.36
36692;BME280;22678;52.052;4.242;2022-07-25T12:50:17;101067.50;;;25.43;46.81
36692;BME280;22678;52.052;4.242;2022-07-25T12:52:43;101074.78;;;25.41;47.55